createdAt,value
2017-12-13T00:00:29.841Z,99895.55
2017-12-13T00:03:05.711Z,99901.36
2017-12-13T00:05:43.640Z,99897.00
2017-12-13T00:08:19.129Z,99903.52
2017-12-13T00:10:55.975Z,99902.20
2017-12-13T00:13:31.200Z,99901.81
2017-12-13T00:16:06.793Z,99896.06
2017-12-13T00:18:43.469Z,99890.69
2017-12-13T00:21:18.010Z,99894.20
2017-12-13T00:23:52.215Z,99889.86
2017-12-13T00:26:29.307Z,99886.23
2017-12-13T00:29:04.366Z,99883.58
2017-12-13T00:31:38.630Z,99874.88
2017-12-13T00:34:15.550Z,99876.19
2017-12-13T00:36:50.463Z,99872.66
2017-12-13T00:39:25.111Z,99876.49
2017-12-13T00:42:00.802Z,99873.70
2017-12-13T00:44:35.305Z,99879.71
2017-12-13T00:47:11.475Z,99879.44
2017-12-13T00:49:47.491Z,99880.60
2017-12-13T00:52:21.840Z,99868.70
2017-12-13T00:54:57.113Z,99864.63
2017-12-13T00:57:32.639Z,99863.65
2017-12-13T01:00:09.246Z,99866.91
2017-12-13T01:02:45.204Z,99857.94
2017-12-13T01:05:20.488Z,99866.45
2017-12-13T01:07:54.874Z,99866.02
2017-12-13T01:10:31.704Z,99870.63
2017-12-13T01:13:07.108Z,99865.58
2017-12-13T01:15:42.232Z,99868.52
2017-12-13T01:18:18.781Z,99862.44
2017-12-13T01:20:54.158Z,99862.86
2017-12-13T01:23:29.416Z,99876.02
2017-12-13T01:26:03.347Z,99877.89
2017-12-13T01:28:40.461Z,99876.54
2017-12-13T01:31:18.253Z,99881.44
2017-12-13T01:33:55.664Z,99879.14
2017-12-13T01:36:32.670Z,99884.16
2017-12-13T01:39:10.348Z,99879.52
2017-12-13T01:41:45.944Z,99887.05
2017-12-13T01:44:24.052Z,99886.09
2017-12-13T01:46:59.680Z,99881.91
2017-12-13T01:49:37.467Z,99874.97
2017-12-13T01:52:12.798Z,99872.72
2017-12-13T01:54:48.509Z,99871.64
2017-12-13T01:57:26.063Z,99872.95
2017-12-13T02:00:05.903Z,99866.47
2017-12-13T02:02:43.014Z,99860.77
2017-12-13T02:05:19.207Z,99859.13
2017-12-13T02:07:56.130Z,99847.96
2017-12-13T02:10:29.994Z,99851.61
2017-12-13T02:13:05.265Z,99852.36
2017-12-13T02:15:39.840Z,99851.31
2017-12-13T02:18:12.388Z,99849.86
2017-12-13T02:20:45.911Z,99841.67
2017-12-13T02:23:17.815Z,99847.52
2017-12-13T02:25:52.864Z,99843.08
2017-12-13T02:28:26.528Z,99853.91
2017-12-13T02:31:00.212Z,99838.02
2017-12-13T02:33:34.465Z,99834.43
2017-12-13T02:36:07.284Z,99835.89
2017-12-13T02:38:41.824Z,99833.37
2017-12-13T02:41:15.453Z,99833.29
2017-12-13T02:43:47.376Z,99837.91
2017-12-13T02:46:20.197Z,99823.06
2017-12-13T02:48:54.188Z,99824.00
2017-12-13T02:51:27.115Z,99821.76
2017-12-13T02:53:59.919Z,99833.06
2017-12-13T02:56:34.408Z,99829.31
2017-12-13T02:59:08.653Z,99824.36
2017-12-13T03:01:40.584Z,99822.45
2017-12-13T03:04:16.416Z,99808.57
2017-12-13T03:06:50.736Z,99811.80
2017-12-13T03:09:25.280Z,99808.31
2017-12-13T03:11:59.538Z,99799.25
2017-12-13T03:14:32.256Z,99792.11
2017-12-13T03:17:05.034Z,99783.98
2017-12-13T03:19:39.926Z,99778.45
2017-12-13T03:22:14.406Z,99774.27
2017-12-13T03:24:48.796Z,99771.83
2017-12-13T03:27:21.432Z,99764.02
2017-12-13T03:29:53.426Z,99764.54
2017-12-13T03:32:28.395Z,99766.25
2017-12-13T03:35:02.976Z,99772.78
2017-12-13T03:37:37.436Z,99770.06
2017-12-13T03:40:09.390Z,99767.66
2017-12-13T03:42:43.923Z,99763.55
2017-12-13T03:45:17.734Z,99758.23
2017-12-13T03:47:50.536Z,99744.74
2017-12-13T03:50:25.063Z,99744.11
2017-12-13T03:52:58.783Z,99736.81
2017-12-13T03:55:32.546Z,99737.70
2017-12-13T03:58:07.389Z,99728.69
2017-12-13T04:00:41.633Z,99724.48
2017-12-13T04:03:15.300Z,99720.66
2017-12-13T04:05:49.023Z,99729.42
2017-12-13T04:08:21.820Z,99734.84
2017-12-13T04:10:55.548Z,99737.28
2017-12-13T04:13:29.225Z,99738.80
2017-12-13T04:16:04.069Z,99733.96
2017-12-13T04:18:37.797Z,99731.72
2017-12-13T04:21:09.635Z,99736.34
2017-12-13T04:23:43.609Z,99735.26
2017-12-13T04:26:17.403Z,99737.08
2017-12-13T04:28:51.448Z,99733.02
2017-12-13T04:31:25.059Z,99739.94
2017-12-13T04:33:58.687Z,99733.11
2017-12-13T04:36:32.296Z,99726.61
2017-12-13T04:39:06.250Z,99722.42
2017-12-13T04:41:39.958Z,99718.52
2017-12-13T04:44:13.964Z,99721.23
2017-12-13T04:46:47.696Z,99711.19
2017-12-13T04:49:21.257Z,99714.31
2017-12-13T04:51:54.943Z,99713.87
2017-12-13T04:54:28.770Z,99714.79
2017-12-13T04:57:02.488Z,99716.14
2017-12-13T04:59:36.595Z,99711.80
2017-12-13T05:02:11.174Z,99710.44
2017-12-13T05:04:45.408Z,99705.83
2017-12-13T05:07:22.739Z,99699.98
2017-12-13T05:09:56.709Z,99697.52
2017-12-13T05:12:28.648Z,99697.75
2017-12-13T05:15:02.546Z,99701.23
2017-12-13T05:17:35.231Z,99700.73
2017-12-13T05:20:07.962Z,99699.61
2017-12-13T05:22:40.014Z,99701.81
2017-12-13T05:25:14.298Z,99692.34
2017-12-13T05:27:47.249Z,99694.41
2017-12-13T05:30:20.387Z,99688.55
2017-12-13T05:32:54.046Z,99697.18
2017-12-13T05:35:25.982Z,99689.15
2017-12-13T05:37:58.780Z,99683.98
2017-12-13T05:40:30.708Z,99683.20
2017-12-13T05:43:03.524Z,99685.05
2017-12-13T05:45:35.607Z,99678.45
2017-12-13T05:48:07.651Z,99680.48
2017-12-13T05:50:39.854Z,99684.19
2017-12-13T05:53:11.620Z,99676.18
2017-12-13T05:55:44.302Z,99675.01
2017-12-13T05:58:16.322Z,99677.06
2017-12-13T06:00:48.711Z,99673.52
2017-12-13T06:03:21.472Z,99677.91
2017-12-13T06:05:54.189Z,99668.19
2017-12-13T06:08:25.989Z,99670.12
2017-12-13T06:10:57.943Z,99666.35
2017-12-13T06:13:30.708Z,99656.20
2017-12-13T06:16:03.923Z,99661.75
2017-12-13T06:18:36.044Z,99646.15
2017-12-13T06:21:08.895Z,99640.34
2017-12-13T06:23:40.957Z,99642.34
2017-12-13T06:26:13.818Z,99636.78
2017-12-13T06:28:45.769Z,99640.02
2017-12-13T06:31:18.910Z,99637.78
2017-12-13T06:33:51.700Z,99639.22
2017-12-13T06:36:24.414Z,99637.00
2017-12-13T06:38:59.556Z,99630.33
2017-12-13T06:41:31.402Z,99624.25
2017-12-13T06:44:04.390Z,99616.28
2017-12-13T06:46:41.837Z,99622.97
2017-12-13T06:49:14.523Z,99618.06
2017-12-13T06:51:46.719Z,99622.12
2017-12-13T06:54:18.516Z,99623.04
2017-12-13T06:56:50.457Z,99620.37
2017-12-13T06:59:22.704Z,99621.70
2017-12-13T07:01:54.494Z,99615.44
2017-12-13T07:04:26.528Z,99612.72
2017-12-13T07:06:59.459Z,99607.70
2017-12-13T07:09:31.594Z,99604.33
2017-12-13T07:12:04.555Z,99598.19
2017-12-13T07:14:36.558Z,99596.72
2017-12-13T07:17:09.492Z,99592.64
2017-12-13T07:19:42.190Z,99591.81
2017-12-13T07:22:14.344Z,99586.02
2017-12-13T07:24:46.104Z,99583.00
2017-12-13T07:27:18.053Z,99573.01
2017-12-13T07:29:49.991Z,99571.05
2017-12-13T07:32:23.082Z,99566.09
2017-12-13T07:34:55.114Z,99568.73
2017-12-13T07:37:27.068Z,99567.23
2017-12-13T07:39:59.838Z,99554.66
2017-12-13T07:42:31.822Z,99554.42
2017-12-13T07:45:07.679Z,99549.09
2017-12-13T07:47:39.842Z,99552.83
2017-12-13T07:50:11.771Z,99547.29
2017-12-13T07:52:44.154Z,99551.55
2017-12-13T07:55:16.914Z,99545.59
2017-12-13T07:57:48.867Z,99539.70
2017-12-13T08:00:20.822Z,99532.76
2017-12-13T08:02:52.862Z,99530.55
2017-12-13T08:05:26.017Z,99524.20
2017-12-13T08:07:57.830Z,99525.77
2017-12-13T08:10:29.738Z,99512.94
2017-12-13T08:13:01.662Z,99515.86
2017-12-13T08:15:33.609Z,99510.96
2017-12-13T08:18:05.818Z,99503.81
2017-12-13T08:20:37.802Z,99497.38
2017-12-13T08:23:10.742Z,99482.80
2017-12-13T08:25:42.602Z,99485.44
2017-12-13T08:28:14.528Z,99478.33
2017-12-13T08:30:46.665Z,99470.22
2017-12-13T08:33:18.640Z,99472.45
2017-12-13T08:35:50.493Z,99471.11
2017-12-13T08:38:23.320Z,99458.42
2017-12-13T08:40:55.333Z,99446.23
2017-12-13T08:43:28.196Z,99440.30
2017-12-13T08:46:01.634Z,99438.86
2017-12-13T08:48:33.518Z,99442.66
2017-12-13T08:51:05.428Z,99440.77
2017-12-13T08:53:38.528Z,99433.86
2017-12-13T08:56:11.636Z,99425.07
2017-12-13T08:58:44.495Z,99429.84
2017-12-13T09:01:17.088Z,99419.66
2017-12-13T09:03:50.588Z,99416.38
2017-12-13T09:06:23.394Z,99399.70
2017-12-13T09:08:58.322Z,99402.08
2017-12-13T09:11:32.727Z,99387.24
2017-12-13T09:14:08.858Z,99377.88
2017-12-13T09:16:44.876Z,99381.00
2017-12-13T09:19:18.835Z,99370.42
2017-12-13T09:21:51.092Z,99374.93
2017-12-13T09:24:24.800Z,99365.78
2017-12-13T09:26:59.186Z,99354.76
2017-12-13T09:29:34.740Z,99343.84
2017-12-13T09:32:07.517Z,99346.17
2017-12-13T09:34:42.319Z,99330.27
2017-12-13T09:37:16.799Z,99344.45
2017-12-13T09:39:50.570Z,99333.94
2017-12-13T09:42:25.096Z,99332.62
2017-12-13T09:44:59.627Z,99328.23
2017-12-13T09:47:34.451Z,99319.51
2017-12-13T09:50:08.922Z,99317.92
2017-12-13T09:52:42.676Z,99317.28
2017-12-13T09:55:17.034Z,99303.16
2017-12-13T09:57:49.951Z,99297.00
2017-12-13T10:00:24.427Z,99295.89
2017-12-13T10:02:56.694Z,99289.64
2017-12-13T10:05:31.067Z,99282.30
2017-12-13T10:08:03.925Z,99281.98
2017-12-13T10:10:37.904Z,99274.52
2017-12-13T10:13:12.793Z,99272.42
2017-12-13T10:15:46.558Z,99270.23
2017-12-13T10:18:20.678Z,99252.51
2017-12-13T10:20:54.398Z,99240.95
2017-12-13T10:23:28.115Z,99242.25
2017-12-13T10:26:01.656Z,99238.05
2017-12-13T10:28:35.321Z,99227.14
2017-12-13T10:31:08.920Z,99217.90
2017-12-13T10:33:41.885Z,99209.33
2017-12-13T10:36:15.974Z,99211.09
2017-12-13T10:38:49.707Z,99189.86
2017-12-13T10:41:23.271Z,99192.31
2017-12-13T10:43:57.201Z,99187.44
2017-12-13T10:46:31.054Z,99177.95
2017-12-13T10:49:04.280Z,99171.70
2017-12-13T10:51:38.056Z,99164.59
2017-12-13T10:54:11.783Z,99158.70
2017-12-13T10:56:45.567Z,99155.64
2017-12-13T10:59:19.655Z,99145.13
2017-12-13T11:01:53.467Z,99132.13
2017-12-13T11:04:27.258Z,99124.86
2017-12-13T11:07:00.906Z,99125.00
2017-12-13T11:09:34.603Z,99114.31
2017-12-13T11:12:08.796Z,99106.77
2017-12-13T11:14:42.700Z,99107.06
2017-12-13T11:17:16.409Z,99089.98
2017-12-13T11:20:09.379Z,99086.41
2017-12-13T11:22:42.985Z,99077.20
2017-12-13T11:25:16.807Z,99068.12
2017-12-13T11:27:50.877Z,99059.54
2017-12-13T11:30:24.502Z,99045.42
2017-12-13T11:32:58.274Z,99041.77
2017-12-13T11:35:31.858Z,99031.66
2017-12-13T11:38:05.327Z,99019.72
2017-12-13T11:40:39.465Z,99012.53
2017-12-13T11:43:13.165Z,99007.52
2017-12-13T11:45:46.225Z,98995.75
2017-12-13T11:48:21.002Z,98986.38
2017-12-13T11:50:55.659Z,98987.06
2017-12-13T11:53:29.659Z,98983.23
2017-12-13T11:56:03.452Z,98972.41
2017-12-13T11:58:37.120Z,98971.89
2017-12-13T12:01:11.949Z,98966.28
2017-12-13T12:03:49.808Z,98955.77
2017-12-13T12:06:24.190Z,98957.86
2017-12-13T12:09:00.130Z,98952.14
2017-12-13T12:11:34.625Z,98947.05
2017-12-13T12:14:09.218Z,98933.53
2017-12-13T12:16:44.505Z,98938.27
2017-12-13T12:19:20.511Z,98926.66
2017-12-13T12:21:55.965Z,98920.73
2017-12-13T12:24:30.961Z,98909.56
2017-12-13T12:27:07.043Z,98904.34
2017-12-13T12:29:44.351Z,98884.17
2017-12-13T12:32:19.417Z,98891.13
2017-12-13T12:34:53.674Z,98878.97
2017-12-13T12:37:30.194Z,98866.50
2017-12-13T12:40:07.747Z,98859.66
2017-12-13T12:42:41.950Z,98855.30
2017-12-13T12:45:19.863Z,98849.06
2017-12-13T12:47:56.165Z,98844.87
2017-12-13T12:50:33.347Z,98833.61
2017-12-13T12:53:08.768Z,98827.70
2017-12-13T12:55:44.922Z,98823.80
2017-12-13T12:58:20.295Z,98817.30
2017-12-13T13:00:58.214Z,98803.06
2017-12-13T13:03:35.510Z,98799.98
2017-12-13T13:06:11.475Z,98791.82
2017-12-13T13:08:46.668Z,98784.36
2017-12-13T13:11:22.729Z,98781.63
2017-12-13T13:13:59.958Z,98774.27
2017-12-13T13:16:36.939Z,98773.05
2017-12-13T13:19:13.302Z,98763.22
2017-12-13T13:21:50.027Z,98761.05
2017-12-13T13:24:24.493Z,98752.96
2017-12-13T13:27:01.659Z,98746.81
2017-12-13T13:29:38.264Z,98748.95
2017-12-13T13:32:17.601Z,98741.30
2017-12-13T13:34:55.185Z,98734.45
2017-12-13T13:37:31.926Z,98733.34
2017-12-13T13:40:10.908Z,98726.30
2017-12-13T13:42:48.964Z,98720.69
2017-12-13T13:45:27.580Z,98719.71
2017-12-13T13:48:07.405Z,98720.42
2017-12-13T13:50:45.650Z,98720.16
2017-12-13T13:53:24.070Z,98709.50
2017-12-13T13:56:01.683Z,98706.77
2017-12-13T13:58:39.671Z,98714.44
2017-12-13T14:01:17.012Z,98696.03
2017-12-13T14:03:55.132Z,98696.94
2017-12-13T14:06:31.551Z,98687.59
2017-12-13T14:09:08.025Z,98675.77
2017-12-13T14:11:45.095Z,98670.81
2017-12-13T14:14:23.831Z,98671.19
2017-12-13T14:17:00.800Z,98658.91
2017-12-13T14:19:37.109Z,98656.83
2017-12-13T14:22:19.398Z,98657.98
2017-12-13T14:24:58.096Z,98666.22
2017-12-13T14:27:35.752Z,98663.39
2017-12-13T14:30:15.968Z,98660.95
2017-12-13T14:32:53.558Z,98665.98
2017-12-13T14:35:31.457Z,98656.20
2017-12-13T14:38:11.619Z,98658.06
2017-12-13T14:40:50.025Z,98648.72
2017-12-13T14:43:28.821Z,98644.86
2017-12-13T14:46:07.555Z,98638.69
2017-12-13T14:48:45.487Z,98630.19
2017-12-13T14:51:25.189Z,98636.30
2017-12-13T14:54:03.066Z,98634.45
2017-12-13T14:56:41.985Z,98632.66
2017-12-13T14:59:20.872Z,98628.14
2017-12-13T15:01:58.091Z,98621.17
2017-12-13T15:04:36.485Z,98622.23
2017-12-13T15:07:14.298Z,98612.88
2017-12-13T15:09:52.010Z,98614.37
2017-12-13T15:12:30.036Z,98610.66
2017-12-13T15:15:08.800Z,98603.41
2017-12-13T15:17:46.213Z,98607.98
2017-12-13T15:20:26.769Z,98591.76
2017-12-13T15:23:04.721Z,98588.81
2017-12-13T15:25:44.024Z,98579.80
2017-12-13T15:28:24.428Z,98578.84
2017-12-13T15:31:03.799Z,98571.08
2017-12-13T15:33:45.773Z,98567.48
2017-12-13T15:36:23.441Z,98560.97
2017-12-13T15:39:06.000Z,98560.22
2017-12-13T15:41:45.000Z,98556.15
2017-12-13T15:44:26.061Z,98550.25
2017-12-13T15:47:04.582Z,98541.95
2017-12-13T15:49:43.585Z,98537.51
2017-12-13T15:52:23.023Z,98537.78
2017-12-13T15:55:07.175Z,98530.59
2017-12-13T15:57:50.102Z,98526.28
2017-12-13T16:00:28.551Z,98521.48
2017-12-13T16:03:11.697Z,98517.47
2017-12-13T16:05:52.238Z,98510.56
2017-12-13T16:08:35.231Z,98500.69
2017-12-13T16:11:20.436Z,98499.56
2017-12-13T16:14:01.424Z,98495.23
2017-12-13T16:16:43.610Z,98489.24
2017-12-13T16:19:21.626Z,98493.02
2017-12-13T16:22:04.202Z,98485.80
2017-12-13T16:24:40.472Z,98477.59
2017-12-13T16:27:20.843Z,98470.76
2017-12-13T16:30:03.778Z,98470.95
2017-12-13T16:32:44.650Z,98468.30
2017-12-13T16:35:31.627Z,98464.98
2017-12-13T16:38:12.040Z,98451.55
2017-12-13T16:40:51.505Z,98456.28
2017-12-13T16:43:35.132Z,98455.97
2017-12-13T16:46:14.341Z,98456.98
2017-12-13T16:48:54.752Z,98453.84
2017-12-13T16:51:38.921Z,98440.03
2017-12-13T16:54:19.283Z,98433.22
2017-12-13T16:57:00.111Z,98433.59
2017-12-13T16:59:38.488Z,98420.44
2017-12-13T17:02:20.090Z,98420.70
2017-12-13T17:04:59.759Z,98412.52
2017-12-13T17:07:40.575Z,98407.55
2017-12-13T17:10:20.179Z,98401.32
2017-12-13T17:12:59.732Z,98399.78
2017-12-13T17:15:37.906Z,98401.48
2017-12-13T17:18:18.192Z,98397.61
2017-12-13T17:21:01.207Z,98389.32
2017-12-13T17:23:39.678Z,98386.58
2017-12-13T17:26:16.888Z,98381.81
2017-12-13T17:28:55.292Z,98377.95
2017-12-13T17:31:32.951Z,98377.82
2017-12-13T17:34:17.491Z,98368.20
2017-12-13T17:36:56.664Z,98361.38
2017-12-13T17:39:42.326Z,98344.48
2017-12-13T17:42:24.524Z,98346.97
2017-12-13T17:45:08.408Z,98343.30
2017-12-13T17:47:52.066Z,98334.76
2017-12-13T17:50:32.039Z,98319.39
2017-12-13T17:53:14.932Z,98320.38
2017-12-13T17:55:56.437Z,98314.02
2017-12-13T17:58:38.894Z,98315.44
2017-12-13T18:01:19.033Z,98304.02
2017-12-13T18:03:58.066Z,98302.01
2017-12-13T18:06:40.770Z,98297.89
2017-12-13T18:09:24.063Z,98292.84
2017-12-13T18:12:07.076Z,98281.87
2017-12-13T18:14:50.457Z,98269.92
2017-12-13T18:17:30.847Z,98253.84
2017-12-13T18:20:13.926Z,98231.47
2017-12-13T18:22:53.463Z,98231.50
2017-12-13T18:25:38.342Z,98235.14
2017-12-13T18:28:33.855Z,98220.10
2017-12-13T18:31:15.420Z,98208.63
2017-12-13T18:33:55.331Z,98201.52
2017-12-13T18:36:36.669Z,98200.38
2017-12-13T18:39:20.700Z,98192.54
2017-12-13T18:41:59.493Z,98175.73
2017-12-13T18:44:41.502Z,98168.50
2017-12-13T18:47:20.990Z,98155.81
2017-12-13T18:50:04.225Z,98144.19
2017-12-13T18:52:42.392Z,98137.57
2017-12-13T18:55:23.758Z,98131.20
2017-12-13T18:58:01.804Z,98123.92
2017-12-13T19:00:43.918Z,98119.17
2017-12-13T19:03:27.334Z,98111.07
2017-12-13T19:06:07.535Z,98116.61
2017-12-13T19:08:49.069Z,98112.77
2017-12-13T19:11:26.979Z,98108.34
2017-12-13T19:14:12.407Z,98102.96
2017-12-13T19:16:54.109Z,98099.47
2017-12-13T19:19:32.025Z,98088.27
2017-12-13T19:22:10.627Z,98081.34
2017-12-13T19:24:50.043Z,98078.77
2017-12-13T19:27:30.556Z,98070.11
2017-12-13T19:30:10.034Z,98055.91
2017-12-13T19:32:51.669Z,98039.55
2017-12-13T19:35:30.743Z,98023.17
2017-12-13T19:38:09.855Z,98018.59
2017-12-13T19:40:49.942Z,98012.20
2017-12-13T19:43:30.374Z,98005.68
2017-12-13T19:46:09.313Z,98001.23
2017-12-13T19:48:48.744Z,97988.77
2017-12-13T19:51:35.544Z,97985.23
2017-12-13T19:54:15.833Z,97975.63
2017-12-13T19:56:58.653Z,97958.52
2017-12-13T19:59:37.296Z,97943.52
2017-12-13T20:02:18.191Z,97933.27
2017-12-13T20:04:59.527Z,97934.67
2017-12-13T20:07:38.544Z,97930.18
2017-12-13T20:13:04.604Z,97903.06
2017-12-13T20:15:43.930Z,97903.22
2017-12-13T20:18:22.882Z,97887.34
2017-12-13T20:21:02.126Z,97881.44
2017-12-13T20:23:43.505Z,97866.01
2017-12-13T20:26:23.624Z,97864.11
2017-12-13T20:29:02.966Z,97863.70
2017-12-13T20:31:40.636Z,97847.59
2017-12-13T20:34:19.792Z,97840.50
2017-12-13T20:36:57.904Z,97843.02
2017-12-13T20:39:34.507Z,97825.87
2017-12-13T20:42:12.200Z,97809.73
2017-12-13T20:44:50.068Z,97804.69
2017-12-13T20:47:27.314Z,97802.72
2017-12-13T20:50:05.284Z,97790.41
2017-12-13T20:52:43.226Z,97770.88
2017-12-13T20:55:22.672Z,97771.81
2017-12-13T20:58:01.560Z,97756.91
2017-12-13T21:00:40.098Z,97749.41
2017-12-13T21:03:17.618Z,97747.38
2017-12-13T21:05:55.188Z,97728.55
2017-12-13T21:08:33.579Z,97726.77
2017-12-13T21:11:09.914Z,97723.77
2017-12-13T21:13:47.136Z,97722.00
2017-12-13T21:16:24.458Z,97714.01
2017-12-13T21:19:01.166Z,97706.87
2017-12-13T21:21:40.610Z,97691.80
2017-12-13T21:24:19.875Z,97675.56
2017-12-13T21:27:00.147Z,97677.77
2017-12-13T21:29:38.766Z,97670.47
2017-12-13T21:32:17.655Z,97656.73
2017-12-13T21:34:55.562Z,97653.45
2017-12-13T21:37:32.962Z,97641.47
2017-12-13T21:40:10.934Z,97630.09
2017-12-13T21:42:49.632Z,97619.24
2017-12-13T21:45:27.615Z,97614.23
2017-12-13T21:48:08.965Z,97610.52
2017-12-13T21:50:47.011Z,97611.77
2017-12-13T21:53:22.494Z,97590.03
2017-12-13T21:55:58.970Z,97604.36
2017-12-13T21:58:35.952Z,97596.48
2017-12-13T22:01:12.787Z,97580.42
2017-12-13T22:03:50.597Z,97576.51
2017-12-13T22:06:28.935Z,97576.81
2017-12-13T22:09:06.583Z,97573.66
2017-12-13T22:11:45.234Z,97569.05
2017-12-13T22:14:23.902Z,97557.45
2017-12-13T22:17:01.941Z,97547.25
2017-12-13T22:19:39.175Z,97554.33
2017-12-13T22:22:18.356Z,97547.77
2017-12-13T22:24:55.951Z,97550.53
2017-12-13T22:27:33.419Z,97530.90
2017-12-13T22:30:10.397Z,97534.05
2017-12-13T22:32:49.126Z,97534.55
2017-12-13T22:35:27.554Z,97529.48
2017-12-13T22:38:05.993Z,97528.27
2017-12-13T22:40:43.380Z,97527.83
2017-12-13T22:43:17.777Z,97534.52
2017-12-13T22:45:53.853Z,97516.27
2017-12-13T22:48:27.984Z,97526.63
2017-12-13T22:51:04.008Z,97517.20
2017-12-13T22:53:39.544Z,97511.80
2017-12-13T22:56:15.370Z,97505.77
2017-12-13T22:58:52.699Z,97497.76
2017-12-13T23:01:30.281Z,97496.30
2017-12-13T23:04:07.615Z,97496.62
2017-12-13T23:06:43.475Z,97514.67
2017-12-13T23:09:19.484Z,97525.03
2017-12-13T23:11:53.145Z,97528.16
2017-12-13T23:14:26.759Z,97535.53
2017-12-13T23:17:00.921Z,97527.74
2017-12-13T23:19:34.450Z,97530.86
2017-12-13T23:22:08.245Z,97527.16
2017-12-13T23:24:41.964Z,97536.20
2017-12-13T23:27:15.549Z,97502.28
2017-12-13T23:29:49.682Z,97493.47
2017-12-13T23:32:23.236Z,97480.95
2017-12-13T23:34:57.165Z,97466.16
2017-12-13T23:37:30.914Z,97449.77
2017-12-13T23:40:05.178Z,97447.89
2017-12-13T23:42:38.775Z,97462.50
2017-12-13T23:45:14.300Z,97458.33
2017-12-13T23:47:48.051Z,97452.91
2017-12-13T23:50:21.616Z,97469.47
2017-12-13T23:52:55.195Z,97480.78
2017-12-13T23:55:29.054Z,97489.62
2017-12-13T23:58:02.644Z,97487.73
